Time;durP1;ratioP1;P1;durP2;ratioP2;P2;SDS_P1;SDS_P2;PMS_P1;PMS_P2;Temp;Humidity;BMP_temperature;BMP_pressure;BME280_temperature;BME280_humidity;BME280_pressure;Samples;Min_cycle;Max_cycle;Signal;HPM_P1;HPM_P2
2023/11/30 00:00:20;;;;;;;2.80;2.30;;;;;;;3.04;69.37;93848.59;5048758;28;20652;-87
2023/11/30 00:02:46;;;;;;;2.50;2.23;;;;;;;3.02;69.08;93827.63;5048563;28;20206;-87
2023/11/30 00:05:13;;;;;;;2.67;2.30;;;;;;;2.97;69.46;93828.16;5048431;28;20232;-88
2023/11/30 00:07:42;;;;;;;2.60;2.10;;;;;;;2.97;69.32;93829.91;5047733;28;20677;-87
2023/11/30 00:10:09;;;;;;;2.17;1.97;;;;;;;2.94;69.57;93825.16;5048814;28;20233;-87
2023/11/30 00:12:36;;;;;;;2.03;1.87;;;;;;;2.94;69.41;93817.53;5048867;28;20205;-88
2023/11/30 00:15:04;;;;;;;2.37;1.90;;;;;;;2.90;69.00;93806.91;5050577;28;20201;-88
2023/11/30 00:17:31;;;;;;;2.40;2.10;;;;;;;2.81;69.38;93810.50;5051281;28;20197;-87
2023/11/30 00:19:57;;;;;;;2.40;1.90;;;;;;;2.76;69.21;93818.66;5051354;28;20312;-88
2023/11/30 00:22:24;;;;;;;2.63;2.10;;;;;;;2.73;69.23;93821.53;5051683;28;20292;-88
2023/11/30 00:24:50;;;;;;;4.53;2.23;;;;;;;2.76;68.96;93822.94;5051671;28;20209;-87
2023/11/30 00:27:17;;;;;;;2.47;2.13;;;;;;;2.72;69.34;93827.56;5051719;28;20221;-87
2023/11/30 00:29:43;;;;;;;2.40;1.80;;;;;;;2.74;69.39;93829.94;5043213;28;20218;-88
2023/11/30 00:32:13;;;;;;;2.00;1.77;;;;;;;2.81;69.22;93845.31;5051973;28;20233;-87
2023/11/30 00:34:39;;;;;;;2.93;1.93;;;;;;;2.84;69.31;93838.13;5051451;28;20189;-87
2023/11/30 00:37:06;;;;;;;2.27;1.90;;;;;;;2.84;69.18;93832.25;5051313;28;20629;-87
2023/11/30 00:39:32;;;;;;;3.27;1.77;;;;;;;2.70;69.37;93829.50;5051112;28;20221;-86
2023/11/30 00:41:59;;;;;;;1.87;1.70;;;;;;;2.70;69.61;93839.66;5051392;28;20556;-88
2023/11/30 00:44:27;;;;;;;1.87;1.77;;;;;;;2.74;69.67;93845.19;5051193;28;20205;-88
2023/11/30 00:46:53;;;;;;;2.13;1.93;;;;;;;2.73;69.26;93843.59;5050592;28;20221;-87
2023/11/30 00:49:21;;;;;;;2.07;1.80;;;;;;;2.75;69.53;93836.59;5049415;28;20226;-87
2023/11/30 00:51:48;;;;;;;2.33;1.80;;;;;;;2.79;69.63;93835.31;5050855;28;20383;-87
2023/11/30 00:54:14;;;;;;;2.20;1.87;;;;;;;2.80;69.18;93825.94;5050843;28;20800;-87
2023/11/30 00:56:41;;;;;;;3.77;2.10;;;;;;;2.82;68.85;93824.00;5051028;28;20205;-88
2023/11/30 00:59:07;;;;;;;4.83;1.87;;;;;;;2.78;68.97;93806.56;5050813;28;20201;-88
2023/11/30 01:01:33;;;;;;;1.53;1.43;;;;;;;2.73;68.96;93793.59;5051152;28;20210;-87
2023/11/30 01:04:00;;;;;;;1.73;1.63;;;;;;;2.75;69.14;93808.66;5050986;28;20677;-87
2023/11/30 01:06:28;;;;;;;2.37;1.90;;;;;;;2.75;68.78;93799.28;5049769;28;20600;-87
2023/11/30 01:08:54;;;;;;;2.00;1.80;;;;;;;2.74;68.41;93774.03;5050604;28;20201;-88
2023/11/30 01:11:22;;;;;;;4.53;1.60;;;;;;;2.72;68.15;93763.25;5050904;28;20201;-87
2023/11/30 01:13:49;;;;;;;1.90;1.70;;;;;;;2.76;68.39;93774.66;5050617;28;20205;-87
2023/11/30 01:16:15;;;;;;;1.70;1.60;;;;;;;2.81;68.83;93784.31;5050879;28;20204;-86
2023/11/30 01:18:42;;;;;;;1.77;1.60;;;;;;;2.84;68.54;93787.31;5050434;28;20190;-87
2023/11/30 01:21:08;;;;;;;1.90;1.70;;;;;;;2.84;68.54;93787.31;5050624;28;20316;-87
2023/11/30 01:23:36;;;;;;;1.57;1.47;;;;;;;2.82;68.38;93794.31;5048683;28;20205;-88
2023/11/30 01:26:03;;;;;;;2.00;1.80;;;;;;;2.81;67.98;93795.28;5041503;28;20220;-87
2023/11/30 01:28:29;;;;;;;1.67;1.53;;;;;;;2.79;68.56;93787.03;5050770;28;20201;-87
2023/11/30 01:30:56;;;;;;;2.10;1.60;;;;;;;2.71;68.39;93780.25;5050559;28;20229;-87
2023/11/30 01:33:22;;;;;;;2.17;1.63;;;;;;;2.70;68.77;93788.06;5050283;28;20209;-86
2023/11/30 01:35:49;;;;;;;1.70;1.53;;;;;;;2.70;68.66;93790.59;5037481;28;20206;-88
2023/11/30 01:38:15;;;;;;;1.83;1.63;;;;;;;2.74;68.89;93804.53;5044178;28;20220;-87
2023/11/30 01:40:43;;;;;;;2.00;1.80;;;;;;;2.76;68.74;93805.16;5050468;28;20221;-87
2023/11/30 01:43:10;;;;;;;1.70;1.60;;;;;;;2.67;67.91;93766.34;5050411;28;20202;-87
2023/11/30 01:45:37;;;;;;;1.90;1.77;;;;;;;2.70;68.15;93768.50;5049328;28;20571;-87
2023/11/30 01:48:04;;;;;;;1.83;1.63;;;;;;;2.74;68.68;93763.88;5050274;28;20669;-87
2023/11/30 01:50:32;;;;;;;1.80;1.60;;;;;;;2.74;68.32;93753.72;5050389;28;20217;-87
2023/11/30 01:52:59;;;;;;;2.00;1.87;;;;;;;2.76;68.34;93750.03;5050103;28;20209;-87
2023/11/30 01:55:26;;;;;;;2.17;1.83;;;;;;;2.78;68.35;93744.78;5041229;28;20206;-87
2023/11/30 01:57:53;;;;;;;1.47;1.37;;;;;;;2.80;68.26;93739.53;5046895;28;20216;-87
2023/11/30 02:00:21;;;;;;;2.00;1.80;;;;;;;2.78;68.29;93740.50;5049785;28;20279;-87
2023/11/30 02:02:47;;;;;;;1.80;1.70;;;;;;;2.81;68.00;93734.28;5049827;28;20288;-88
2023/11/30 02:05:14;;;;;;;2.23;1.60;;;;;;;2.82;68.08;93732.53;5049612;28;20206;-87
2023/11/30 02:07:40;;;;;;;1.70;1.60;;;;;;;2.75;68.90;93766.25;5049660;28;20233;-87
2023/11/30 02:10:07;;;;;;;2.07;1.70;;;;;;;2.80;68.73;93790.34;5048013;28;20241;-87
2023/11/30 02:12:34;;;;;;;2.10;1.67;;;;;;;2.84;68.90;93787.31;5049274;28;20577;-88
2023/11/30 02:15:03;;;;;;;1.70;1.60;;;;;;;2.90;69.12;93783.25;5049042;28;20672;-86
2023/11/30 02:17:29;;;;;;;1.73;1.60;;;;;;;2.88;69.22;93791.09;5049601;28;20284;-87
2023/11/30 02:19:55;;;;;;;4.03;1.90;;;;;;;2.92;69.35;93794.84;5049542;28;20726;-88
2023/11/30 02:22:23;;;;;;;1.50;1.40;;;;;;;2.91;69.76;93818.66;5043962;28;20197;-87
2023/11/30 02:24:50;;;;;;;3.30;1.70;;;;;;;2.92;70.18;93824.53;5049583;28;20202;-86
2023/11/30 02:27:16;;;;;;;2.30;1.90;;;;;;;2.91;70.15;93811.03;5047820;28;20624;-87
2023/11/30 02:29:42;;;;;;;2.10;1.90;;;;;;;2.87;69.04;93766.63;5049155;28;20283;-87
2023/11/30 02:32:09;;;;;;;1.97;1.80;;;;;;;2.85;69.33;93749.97;5049099;28;20703;-87
2023/11/30 02:34:35;;;;;;;1.70;1.60;;;;;;;2.80;69.09;93747.16;5049087;28;20194;-88
2023/11/30 02:37:02;;;;;;;1.70;1.60;;;;;;;2.78;69.56;93760.03;5048588;28;20194;-87
2023/11/30 02:39:32;;;;;;;2.43;2.00;;;;;;;2.77;69.42;93763.53;5048375;28;20221;-87
2023/11/30 02:42:01;;;;;;;2.00;1.80;;;;;;;2.79;69.57;93759.06;5049187;28;20201;-87
2023/11/30 02:44:27;;;;;;;2.20;2.00;;;;;;;2.82;69.66;93766.34;5047951;28;20204;-88
2023/11/30 02:46:54;;;;;;;2.30;2.10;;;;;;;2.85;69.29;93762.69;5048109;28;20221;-87
2023/11/30 02:49:20;;;;;;;2.10;1.90;;;;;;;2.86;69.82;93759.97;5048679;28;20226;-86
2023/11/30 02:51:46;;;;;;;2.10;1.83;;;;;;;2.90;69.68;93776.41;5048891;28;20581;-88
2023/11/30 02:54:13;;;;;;;2.47;1.80;;;;;;;2.92;69.35;93754.16;5048507;28;20193;-88
2023/11/30 02:56:41;;;;;;;1.77;1.67;;;;;;;2.92;68.87;93727.97;5049170;28;20282;-87
2023/11/30 02:59:08;;;;;;;1.80;1.70;;;;;;;2.87;68.75;93715.81;5044610;28;20580;-87
2023/11/30 03:01:34;;;;;;;1.70;1.60;;;;;;;2.84;68.58;93715.38;5038818;28;20222;-86
2023/11/30 03:04:03;;;;;;;2.50;1.67;;;;;;;2.84;68.97;93715.38;5049080;28;20209;-87
2023/11/30 03:06:29;;;;;;;1.80;1.70;;;;;;;2.78;69.17;93735.41;5048667;28;20228;-88
2023/11/30 03:08:55;;;;;;;1.63;1.53;;;;;;;2.83;69.13;93721.41;5048313;28;20596;-87
2023/11/30 03:11:22;;;;;;;1.93;1.73;;;;;;;2.78;68.65;93709.22;5048779;28;20241;-87
2023/11/30 03:13:49;;;;;;;2.50;1.90;;;;;;;2.75;68.39;93684.94;5048743;28;20197;-87
2023/11/30 03:16:23;;;;;;;1.70;1.60;;;;;;;2.78;68.44;93702.38;5045318;28;20208;-87
2023/11/30 03:18:49;;;;;;;1.90;1.70;;;;;;;2.82;68.80;93704.59;5040213;28;20194;-87
2023/11/30 03:21:17;;;;;;;2.13;1.90;;;;;;;2.81;68.32;93675.06;5048080;28;20235;-88
2023/11/30 03:23:43;;;;;;;2.10;1.90;;;;;;;2.84;68.39;93669.63;5048560;28;20243;-87
2023/11/30 03:26:09;;;;;;;2.10;1.90;;;;;;;2.83;68.05;93668.06;5048360;28;20896;-87
2023/11/30 03:28:36;;;;;;;1.87;1.70;;;;;;;2.83;68.38;93673.91;5048480;28;20592;-87
2023/11/30 03:31:05;;;;;;;1.73;1.63;;;;;;;2.71;69.13;93713.41;5047461;28;20226;-88
2023/11/30 03:33:31;;;;;;;2.27;2.00;;;;;;;2.72;69.30;93737.84;5048306;28;20214;-87
2023/11/30 03:35:57;;;;;;;2.10;1.70;;;;;;;2.71;69.44;93739.59;5048171;28;20679;-87
2023/11/30 03:38:24;;;;;;;2.03;1.80;;;;;;;2.75;69.38;93719.72;5048456;28;20201;-86
2023/11/30 03:40:50;;;;;;;1.87;1.73;;;;;;;2.69;69.37;93703.44;5048991;28;20218;-87
2023/11/30 03:43:17;;;;;;;2.00;1.80;;;;;;;2.71;69.57;93711.66;5048461;28;20205;-86
2023/11/30 03:45:43;;;;;;;2.30;2.00;;;;;;;2.72;69.16;93705.63;5047560;28;20212;-87
2023/11/30 03:48:11;;;;;;;2.23;2.03;;;;;;;2.71;69.35;93709.13;5047465;28;20312;-88
2023/11/30 03:50:37;;;;;;;2.67;1.87;;;;;;;2.70;69.21;93712.63;5051064;28;20225;-88
2023/11/30 03:53:04;;;;;;;2.10;1.70;;;;;;;2.68;68.39;93678.22;5052396;28;20205;-87
2023/11/30 03:55:30;;;;;;;2.30;1.70;;;;;;;2.67;68.96;93679.97;5051622;28;20212;-86
2023/11/30 03:57:57;;;;;;;2.10;1.80;;;;;;;2.71;68.81;93695.63;5051813;28;20197;-88
2023/11/30 04:00:23;;;;;;;1.83;1.73;;;;;;;2.76;68.31;93681.44;5051956;28;20603;-87
2023/11/30 04:02:52;;;;;;;2.67;2.00;;;;;;;2.81;68.60;93691.09;5051695;28;20205;-87
2023/11/30 04:05:20;;;;;;;1.70;1.60;;;;;;;2.86;68.33;93693.09;5048162;28;20205;-87
2023/11/30 04:07:47;;;;;;;2.50;2.13;;;;;;;2.89;67.67;93685.09;5052065;28;20210;-87
2023/11/30 04:10:14;;;;;;;3.90;2.17;;;;;;;2.87;68.16;93664.19;5066585;28;20276;-87
2023/11/30 04:12:41;;;;;;;2.40;1.90;;;;;;;2.85;68.19;93672.00;5060398;28;20216;-87
2023/11/30 04:15:08;;;;;;;2.13;1.77;;;;;;;2.88;67.87;93665.78;5045001;28;20201;-87
2023/11/30 04:17:36;;;;;;;2.70;2.00;;;;;;;2.92;67.68;93649.19;5052834;28;20205;-87
2023/11/30 04:20:04;;;;;;;1.90;1.77;;;;;;;2.86;67.68;93645.63;5046657;28;20250;-88
2023/11/30 04:22:31;;;;;;;3.13;1.90;;;;;;;2.83;68.13;93671.38;5045175;28;20554;-87
2023/11/30 04:24:58;;;;;;;2.23;2.03;;;;;;;2.76;68.30;93670.50;5052834;28;20554;-87
2023/11/30 04:27:24;;;;;;;2.10;1.77;;;;;;;2.65;69.20;93678.56;5051624;28;20221;-88
2023/11/30 04:29:51;;;;;;;2.40;2.03;;;;;;;2.68;69.87;93701.88;5052140;28;20317;-88
2023/11/30 04:32:17;;;;;;;2.23;1.90;;;;;;;2.52;70.25;93719.00;5051606;28;20201;-88
2023/11/30 04:34:48;;;;;;;2.67;2.30;;;;;;;2.51;70.58;93768.22;5051555;28;20202;-86
2023/11/30 04:37:14;;;;;;;2.70;2.27;;;;;;;2.55;70.51;93749.13;5051070;28;20276;-87
2023/11/30 04:39:42;;;;;;;2.63;2.10;;;;;;;2.56;70.78;93736.28;5051639;28;20218;-87
2023/11/30 04:42:09;;;;;;;2.57;2.27;;;;;;;2.59;70.39;93727.50;5051471;28;20201;-87
2023/11/30 04:44:35;;;;;;;2.07;1.87;;;;;;;2.61;70.35;93707.81;5051406;28;20206;-88
2023/11/30 04:47:02;;;;;;;2.67;2.27;;;;;;;2.60;70.59;93714.66;5051016;28;20222;-87
2023/11/30 04:49:28;;;;;;;1.80;1.70;;;;;;;2.59;70.47;93719.91;5051209;28;20240;-88
2023/11/30 04:51:54;;;;;;;2.83;2.23;;;;;;;2.60;70.28;93708.78;5050904;28;20216;-87
2023/11/30 04:54:21;;;;;;;3.40;2.13;;;;;;;2.63;70.11;93703.34;5042290;28;20749;-87
2023/11/30 04:56:49;;;;;;;2.13;1.93;;;;;;;2.68;70.05;93706.16;5031444;28;20206;-87
2023/11/30 04:59:15;;;;;;;2.30;1.97;;;;;;;2.65;70.30;93704.75;5031091;28;20206;-87
2023/11/30 05:01:42;;;;;;;2.60;2.17;;;;;;;2.71;70.15;93710.88;5030388;28;20213;-88
2023/11/30 05:04:08;;;;;;;2.50;1.90;;;;;;;2.78;70.13;93721.94;5031359;28;20206;-87
2023/11/30 05:06:35;;;;;;;1.93;1.67;;;;;;;2.83;69.77;93691.72;5031491;28;20202;-87
2023/11/30 05:09:02;;;;;;;3.80;1.70;;;;;;;2.79;68.60;93644.75;5045850;28;20229;-87
2023/11/30 05:11:29;;;;;;;2.20;1.70;;;;;;;2.74;68.81;93634.31;5044359;28;20256;-87
2023/11/30 05:13:57;;;;;;;2.50;1.63;;;;;;;2.67;68.98;93652.03;5030865;28;20719;-87
2023/11/30 05:16:23;;;;;;;1.97;1.60;;;;;;;2.61;69.16;93646.84;5031041;28;20668;-86
2023/11/30 05:18:50;;;;;;;2.17;1.97;;;;;;;2.58;69.36;93680.22;5030859;28;20214;-86
2023/11/30 05:21:17;;;;;;;2.00;1.70;;;;;;;2.59;69.70;93697.03;5047587;28;20229;-87
2023/11/30 05:23:43;;;;;;;1.77;1.67;;;;;;;2.60;69.95;93680.84;5050032;28;20236;-87
2023/11/30 05:26:10;;;;;;;1.60;1.50;;;;;;;2.60;70.59;93698.63;5050060;28;20213;-86
2023/11/30 05:28:37;;;;;;;2.27;1.87;;;;;;;2.58;71.07;93715.78;5050224;28;20336;-87
2023/11/30 05:31:05;;;;;;;2.27;1.90;;;;;;;2.62;70.48;93714.47;5050698;28;20217;-87
2023/11/30 05:33:32;;;;;;;1.77;1.67;;;;;;;2.45;70.76;93682.59;5050039;28;20205;-87
2023/11/30 05:35:58;;;;;;;2.60;1.80;;;;;;;2.32;71.25;93716.16;5050574;28;20208;-87
2023/11/30 05:38:27;;;;;;;1.87;1.70;;;;;;;2.27;72.00;93741.31;5050409;28;20637;-87
2023/11/30 05:40:54;;;;;;;1.90;1.70;;;;;;;2.39;71.60;93752.63;5049420;28;20221;-87
2023/11/30 05:43:21;;;;;;;2.10;1.67;;;;;;;2.55;71.44;93744.06;5050764;28;20220;-87
2023/11/30 05:45:48;;;;;;;1.80;1.70;;;;;;;2.69;71.32;93739.00;5049863;28;20201;-87
2023/11/30 05:48:18;;;;;;;2.10;1.80;;;;;;;2.78;70.73;93732.88;5049892;28;20236;-86
2023/11/30 05:50:45;;;;;;;3.07;1.97;;;;;;;2.86;71.13;93741.38;5050480;28;20232;-87
2023/11/30 05:53:11;;;;;;;1.93;1.80;;;;;;;2.80;71.06;93729.38;5050100;28;20206;-86
2023/11/30 05:55:38;;;;;;;2.87;2.00;;;;;;;2.80;70.94;93765.75;5049977;28;20205;-87
2023/11/30 05:58:04;;;;;;;3.53;2.23;;;;;;;2.82;71.40;93758.72;5047236;28;20197;-87
2023/11/30 06:00:30;;;;;;;2.30;2.10;;;;;;;2.87;71.72;93764.09;5030221;28;20229;-86
2023/11/30 06:02:57;;;;;;;1.90;1.80;;;;;;;2.94;71.66;93767.50;5030191;28;20268;-87
2023/11/30 06:05:25;;;;;;;3.40;1.80;;;;;;;2.98;70.80;93724.72;5036456;28;20210;-87
2023/11/30 06:07:51;;;;;;;1.90;1.80;;;;;;;2.95;70.31;93685.19;5035358;28;20250;-87
2023/11/30 06:10:17;;;;;;;1.80;1.70;;;;;;;2.94;69.85;93681.09;5029521;28;20234;-87
2023/11/30 06:12:44;;;;;;;1.70;1.60;;;;;;;2.97;70.25;93677.41;5034458;28;20572;-87
2023/11/30 06:15:11;;;;;;;2.97;1.87;;;;;;;2.94;69.78;93677.75;5049871;28;20752;-87
2023/11/30 06:17:38;;;;;;;1.97;1.77;;;;;;;2.74;69.94;93657.19;5049577;28;20199;-87
2023/11/30 06:20:09;;;;;;;4.70;1.87;;;;;;;2.72;70.48;93687.84;5049883;28;20236;-87
2023/11/30 06:22:40;;;;;;;1.77;1.67;;;;;;;2.69;70.16;93680.56;5049625;28;20216;-87
2023/11/30 06:25:07;;;;;;;3.00;1.87;;;;;;;2.72;70.56;93676.88;5049760;28;20312;-87
2023/11/30 06:27:34;;;;;;;2.60;1.93;;;;;;;2.72;70.35;93680.22;5049880;28;20221;-87
2023/11/30 06:30:00;;;;;;;1.87;1.67;;;;;;;2.76;70.65;93683.19;5043757;28;20221;-87
2023/11/30 06:32:27;;;;;;;2.07;1.77;;;;;;;2.83;70.10;93684.09;5049087;28;20201;-88
2023/11/30 06:34:53;;;;;;;2.20;2.00;;;;;;;2.85;69.57;93649.13;5049652;28;20197;-87
2023/11/30 06:37:19;;;;;;;1.97;1.77;;;;;;;2.90;69.22;93623.94;5049028;28;20198;-87
2023/11/30 06:39:47;;;;;;;1.67;1.57;;;;;;;2.93;68.81;93605.03;5049073;28;20708;-87
2023/11/30 06:42:23;;;;;;;1.63;1.53;;;;;;;2.94;68.79;93609.13;5049899;28;20267;-87
2023/11/30 06:44:49;;;;;;;1.73;1.63;;;;;;;2.99;68.97;93602.56;5048925;28;20606;-87
2023/11/30 06:47:16;;;;;;;1.60;1.50;;;;;;;2.96;68.68;93587.66;5048326;28;20205;-88
2023/11/30 06:49:43;;;;;;;1.90;1.77;;;;;;;2.91;68.71;93592.50;5049650;28;20567;-87
2023/11/30 06:52:09;;;;;;;2.67;1.67;;;;;;;2.90;68.93;93606.16;5049511;28;20830;-87
2023/11/30 06:54:35;;;;;;;1.90;1.57;;;;;;;2.83;69.56;93640.09;5037313;28;20201;-88
2023/11/30 06:57:04;;;;;;;2.47;1.53;;;;;;;2.84;69.45;93619.59;5030711;28;20677;-88
2023/11/30 06:59:30;;;;;;;3.03;1.60;;;;;;;2.88;69.04;93605.56;5029526;28;20225;-87
2023/11/30 07:01:57;;;;;;;2.27;1.80;;;;;;;2.88;68.93;93604.78;5039591;28;20608;-88
2023/11/30 07:04:23;;;;;;;1.73;1.57;;;;;;;2.90;69.12;93606.16;5043442;28;20260;-87
2023/11/30 07:06:50;;;;;;;2.67;1.40;;;;;;;2.85;68.83;93600.84;5029577;28;20230;-87
2023/11/30 07:09:16;;;;;;;1.80;1.70;;;;;;;2.85;69.11;93595.75;5046589;28;20597;-87
2023/11/30 07:11:43;;;;;;;2.20;1.70;;;;;;;2.81;69.97;93647.09;5049746;28;20216;-86
2023/11/30 07:14:11;;;;;;;4.17;1.83;;;;;;;2.88;70.31;93664.03;5029375;28;20198;-87
2023/11/30 07:16:37;;;;;;;1.97;1.77;;;;;;;2.95;70.58;93676.78;5030721;28;20575;-87
2023/11/30 07:19:03;;;;;;;3.50;2.10;;;;;;;2.87;70.47;93676.91;5043737;28;20198;-87
2023/11/30 07:21:30;;;;;;;2.43;2.03;;;;;;;2.93;70.72;93701.59;5030280;28;20198;-88
2023/11/30 07:23:56;;;;;;;1.87;1.77;;;;;;;2.97;71.13;93718.06;5049140;28;20209;-87
2023/11/30 07:26:23;;;;;;;5.80;1.93;;;;;;;2.92;71.67;93731.28;5052735;28;20209;-87
2023/11/30 07:28:50;;;;;;;2.40;1.80;;;;;;;2.96;71.53;93730.00;5052500;28;20704;-87
2023/11/30 07:31:21;;;;;;;2.47;1.70;;;;;;;2.98;71.17;93717.09;5052203;28;20312;-86
2023/11/30 07:33:48;;;;;;;2.10;1.90;;;;;;;3.05;71.50;93718.00;5043453;28;20212;-88
2023/11/30 07:36:15;;;;;;;2.60;1.77;;;;;;;3.15;71.29;93703.25;5052773;28;20209;-87
2023/11/30 07:38:41;;;;;;;3.93;2.40;;;;;;;3.16;71.89;93725.16;5052472;28;20228;-87
2023/11/30 07:41:08;;;;;;;2.10;1.90;;;;;;;3.18;72.23;93751.19;5052749;28;20221;-87
2023/11/30 07:43:35;;;;;;;2.70;2.13;;;;;;;3.19;72.23;93754.53;5052736;28;20206;-86
2023/11/30 07:46:02;;;;;;;3.37;2.23;;;;;;;3.20;72.53;93753.56;5052320;28;20202;-87
2023/11/30 07:48:30;;;;;;;4.07;2.40;;;;;;;3.12;73.06;93775.56;5052702;28;20228;-86
2023/11/30 07:50:56;;;;;;;4.90;2.80;;;;;;;3.12;72.89;93780.66;5043203;28;20741;-87
2023/11/30 07:53:24;;;;;;;2.60;2.40;;;;;;;3.20;73.04;93776.44;5052307;28;20201;-87
2023/11/30 07:55:54;;;;;;;4.83;2.40;;;;;;;3.23;73.31;93787.06;5052802;28;20228;-87
2023/11/30 07:58:22;;;;;;;3.70;2.33;;;;;;;3.13;73.77;93791.59;5052387;28;20675;-87
2023/11/30 08:00:52;;;;;;;3.73;2.70;;;;;;;3.08;74.67;93816.75;5043638;28;20218;-87
2023/11/30 08:03:18;;;;;;;4.63;2.87;;;;;;;3.05;74.24;93807.75;5052810;28;20266;-88
2023/11/30 08:05:46;;;;;;;4.73;3.40;;;;;;;3.16;74.54;93803.19;5047807;28;20202;-87
2023/11/30 08:08:13;;;;;;;4.33;2.37;;;;;;;3.26;73.98;93803.72;5040642;28;20838;-87
2023/11/30 08:10:39;;;;;;;3.30;2.37;;;;;;;3.35;73.12;93788.19;5033019;28;20230;-87
2023/11/30 08:13:06;;;;;;;2.93;2.23;;;;;;;3.42;72.82;93747.56;5032660;28;20309;-87
2023/11/30 08:15:33;;;;;;;3.80;2.53;;;;;;;3.50;72.35;93723.78;5032444;28;20260;-87
2023/11/30 08:17:59;;;;;;;5.30;2.70;;;;;;;3.50;72.46;93731.41;5032582;28;20233;-87
2023/11/30 08:20:26;;;;;;;4.20;2.50;;;;;;;3.55;71.95;93713.88;5032247;28;20218;-87
2023/11/30 08:22:54;;;;;;;2.37;2.10;;;;;;;3.61;71.68;93710.59;5046694;28;20227;-88
2023/11/30 08:25:21;;;;;;;2.30;2.10;;;;;;;3.62;71.71;93719.81;5052045;28;20202;-87
2023/11/30 08:27:47;;;;;;;3.40;2.20;;;;;;;3.66;71.60;93709.06;5052229;28;20212;-87
2023/11/30 08:30:14;;;;;;;2.77;2.40;;;;;;;3.65;71.25;93682.09;5052365;28;20225;-87
2023/11/30 08:32:41;;;;;;;3.53;2.50;;;;;;;3.68;71.20;93680.91;5052425;28;20213;-88
2023/11/30 08:35:08;;;;;;;4.77;2.73;;;;;;;3.68;70.74;93668.97;5052428;28;20205;-87
2023/11/30 08:37:34;;;;;;;5.87;2.60;;;;;;;3.69;70.29;93659.59;5051018;28;20660;-87
2023/11/30 08:40:04;;;;;;;5.27;2.70;;;;;;;3.66;70.61;93655.66;5039232;28;20226;-87
2023/11/30 08:42:30;;;;;;;2.73;2.43;;;;;;;3.65;70.09;93638.03;5052349;28;20565;-86
2023/11/30 08:44:57;;;;;;;3.73;2.80;;;;;;;3.67;77.52;93849.81;5052012;28;20202;-87
2023/11/30 08:47:24;;;;;;;4.00;2.87;;;;;;;3.84;78.57;93896.25;5051042;28;20213;-87
2023/11/30 08:49:50;;;;;;;2.80;2.20;;;;;;;3.83;72.21;93640.16;5052389;28;20285;-87
2023/11/30 08:52:17;;;;;;;2.73;2.10;;;;;;;3.81;71.13;93591.97;5051666;28;20202;-86
2023/11/30 08:54:44;;;;;;;3.60;2.40;;;;;;;3.83;71.21;93584.94;5048345;28;20208;-87
2023/11/30 08:57:12;;;;;;;3.07;2.40;;;;;;;3.80;70.94;93588.66;5052449;28;20204;-87
2023/11/30 08:59:39;;;;;;;5.23;2.10;;;;;;;3.81;71.19;93600.41;5052411;28;20275;-87
2023/11/30 09:02:06;;;;;;;4.80;2.30;;;;;;;3.75;71.31;93610.53;5052263;28;20576;-86
2023/11/30 09:04:33;;;;;;;2.00;1.87;;;;;;;3.72;72.19;93654.13;5050175;28;20232;-87
2023/11/30 09:07:00;;;;;;;3.77;2.70;;;;;;;3.74;72.27;93667.47;5034138;28;20202;-85
2023/11/30 09:09:28;;;;;;;2.67;2.40;;;;;;;3.76;72.71;93683.34;5051442;28;20225;-87
2023/11/30 09:11:54;;;;;;;3.37;2.50;;;;;;;3.81;72.65;93684.38;5054647;28;20206;-88
2023/11/30 09:14:22;;;;;;;4.73;2.43;;;;;;;3.80;72.69;93677.72;5054216;28;20205;-87
2023/11/30 09:16:49;;;;;;;3.00;2.50;;;;;;;3.85;73.16;93684.03;5053688;28;20646;-87
2023/11/30 09:19:15;;;;;;;3.73;2.23;;;;;;;3.78;72.80;93683.97;5053807;28;20194;-86
2023/11/30 09:21:42;;;;;;;11.07;8.30;;;;;;;3.77;74.08;93744.25;5053608;28;20189;-87
2023/11/30 09:24:09;;;;;;;20.80;17.00;;;;;;;3.80;74.03;93740.56;5053303;28;20715;-85
2023/11/30 09:26:36;;;;;;;11.90;8.30;;;;;;;3.83;74.15;93740.19;5053027;28;20204;-86
2023/11/30 09:29:02;;;;;;;8.50;5.50;;;;;;;3.85;74.29;93750.22;5053419;28;20749;-87
2023/11/30 09:31:31;;;;;;;5.57;4.53;;;;;;;3.88;74.71;93765.09;5053379;28;20232;-87
2023/11/30 09:33:57;;;;;;;3.93;2.80;;;;;;;3.83;75.50;93801.28;5053674;28;20279;-87
2023/11/30 09:36:23;;;;;;;4.03;3.20;;;;;;;3.78;76.43;93823.94;5053392;28;20259;-86
2023/11/30 09:38:50;;;;;;;3.10;2.80;;;;;;;3.66;77.66;93858.41;5053310;28;20204;-86
2023/11/30 09:41:21;;;;;;;6.30;3.00;;;;;;;3.70;77.64;93864.72;5053231;28;20221;-87
2023/11/30 09:43:47;;;;;;;4.27;3.03;;;;;;;3.70;78.60;93887.63;5049968;28;20255;-87
2023/11/30 09:46:14;;;;;;;3.83;3.10;;;;;;;3.58;79.84;93915.28;5052124;28;20578;-86
2023/11/30 09:48:41;;;;;;;4.10;3.00;;;;;;;3.47;81.22;93948.78;5052830;28;20225;-87
2023/11/30 09:51:11;;;;;;;4.63;3.43;;;;;;;3.43;81.44;93948.34;5049541;28;20232;-87
2023/11/30 09:53:38;;;;;;;4.60;3.40;;;;;;;3.46;82.16;93968.31;5048042;28;20622;-86
2023/11/30 09:56:05;;;;;;;6.37;3.20;;;;;;;3.46;82.24;93960.69;5052662;28;20209;-86
2023/11/30 09:58:33;;;;;;;4.30;3.10;;;;;;;3.50;82.37;93966.22;5050374;28;20204;-86
2023/11/30 10:01:00;;;;;;;5.20;2.93;;;;;;;3.42;84.63;94014.66;5051985;28;20229;-87
2023/11/30 10:03:32;;;;;;;4.37;3.30;;;;;;;3.31;84.10;93985.31;5052757;28;20225;-87
2023/11/30 10:06:00;;;;;;;4.53;3.30;;;;;;;3.28;83.95;93972.16;5051109;28;20208;-86
2023/11/30 10:08:27;;;;;;;4.40;3.40;;;;;;;3.17;85.00;93998.78;5040976;28;20240;-86
2023/11/30 10:10:54;;;;;;;5.77;3.47;;;;;;;3.12;85.88;94022.16;5031591;28;20399;-86
2023/11/30 10:13:20;;;;;;;4.13;3.73;;;;;;;3.16;85.80;94022.63;5030847;28;20202;-86
2023/11/30 10:15:47;;;;;;;3.33;3.00;;;;;;;3.20;86.44;94028.16;5047909;28;20212;-87
2023/11/30 10:18:13;;;;;;;4.57;3.43;;;;;;;3.10;86.76;94036.81;5051013;28;20198;-87
2023/11/30 10:20:40;;;;;;;4.77;3.50;;;;;;;3.08;87.41;94043.78;5050822;28;20232;-85
2023/11/30 10:23:12;;;;;;;4.83;3.20;;;;;;;3.05;88.02;94049.25;5051260;28;20197;-86
2023/11/30 10:25:39;;;;;;;5.37;3.70;;;;;;;3.05;88.21;94046.72;5050733;28;20197;-86
2023/11/30 10:28:06;;;;;;;5.47;3.30;;;;;;;3.08;88.09;94043.78;5049455;28;20622;-86
2023/11/30 10:30:36;;;;;;;4.43;3.60;;;;;;;3.07;89.17;94044.78;5048803;28;20217;-86
2023/11/30 10:33:04;;;;;;;3.60;3.00;;;;;;;2.90;90.11;94053.44;5051142;28;20584;-85
2023/11/30 10:35:31;;;;;;;4.77;3.33;;;;;;;2.81;90.12;94043.50;5053164;28;20205;-86
2023/11/30 10:37:58;;;;;;;3.57;3.27;;;;;;;2.65;91.82;94060.41;5052020;28;20201;-87
2023/11/30 10:40:27;;;;;;;4.20;3.30;;;;;;;2.64;92.15;94065.66;5051645;28;20221;-86
2023/11/30 10:42:53;;;;;;;4.73;3.83;;;;;;;2.53;93.35;94061.72;5052022;28;20201;-86
2023/11/30 10:45:20;;;;;;;6.23;3.77;;;;;;;2.50;94.26;94069.69;5050711;28;20209;-86
2023/11/30 10:47:49;;;;;;;4.93;3.50;;;;;;;2.55;94.77;94082.66;5048474;28;20224;-86
2023/11/30 10:50:16;;;;;;;5.30;3.73;;;;;;;2.65;95.01;94082.50;5029448;28;20348;-86
2023/11/30 10:52:46;;;;;;;4.20;3.80;;;;;;;2.62;95.28;94082.81;5029735;28;20202;-87
2023/11/30 10:55:14;;;;;;;6.67;4.20;;;;;;;2.53;95.72;94076.97;5046409;28;20288;-86
2023/11/30 10:57:43;;;;;;;4.20;3.80;;;;;;;2.61;95.50;94076.94;5041244;28;20883;-86
2023/11/30 11:00:12;;;;;;;4.37;3.97;;;;;;;2.64;96.56;94079.16;5028651;28;20222;-87
2023/11/30 11:02:39;;;;;;;7.77;4.30;;;;;;;2.62;97.29;94086.16;5031877;28;20223;-86
2023/11/30 11:05:16;;;;;;;5.63;4.40;;;;;;;2.74;96.39;94074.66;5049338;28;20213;-86
2023/11/30 11:07:46;;;;;;;7.73;4.60;;;;;;;2.77;96.66;94071.78;5049805;28;20730;-86
2023/11/30 11:10:23;;;;;;;8.87;5.70;;;;;;;2.68;97.74;94082.16;5049918;28;20232;-87
2023/11/30 11:12:52;;;;;;;5.30;4.43;;;;;;;2.58;98.16;94081.56;5050719;28;20231;-87
2023/11/30 11:15:23;;;;;;;5.60;4.80;;;;;;;2.59;97.87;94076.31;5050288;28;20204;-86
2023/11/30 11:17:51;;;;;;;4.87;4.37;;;;;;;2.65;98.60;94087.56;5050538;28;20600;-85
2023/11/30 11:20:25;;;;;;;5.90;4.80;;;;;;;2.80;98.06;94074.94;5048079;28;20228;-86
2023/11/30 11:22:53;;;;;;;6.20;4.63;;;;;;;2.80;97.75;94072.41;5049756;28;20237;-87
2023/11/30 11:25:20;;;;;;;6.87;4.57;;;;;;;2.90;97.06;94055.19;5049885;28;20209;-86
2023/11/30 11:27:46;;;;;;;10.93;8.20;;;;;;;2.85;97.15;94058.25;5049778;28;20197;-86
2023/11/30 11:30:14;;;;;;;6.20;4.83;;;;;;;2.81;97.14;94061.28;5049854;28;20227;-86
2023/11/30 11:32:43;;;;;;;10.03;7.30;;;;;;;2.66;99.40;94095.03;5049847;28;20864;-86
2023/11/30 11:35:10;;;;;;;5.67;5.00;;;;;;;2.65;99.48;94103.59;5048970;28;20652;-86
2023/11/30 11:37:36;;;;;;;5.63;4.73;;;;;;;2.74;99.65;94105.13;5049934;28;20232;-87
2023/11/30 11:40:03;;;;;;;5.60;4.70;;;;;;;2.80;99.63;94095.28;5049655;28;20214;-87